Time;durP1;ratioP1;P1;durP2;ratioP2;P2;SDS_P1;SDS_P2;PMS_P1;PMS_P2;Temp;Humidity;BMP_temperature;BMP_pressure;BME280_temperature;BME280_humidity;BME280_pressure;Samples;Min_cycle;Max_cycle;Signal;HPM_P1;HPM_P2
2023/12/18 00:01:37;;;;;;;16.87;7.47;;;;;;;7.40;75.93;101804.89;125660;1099;102076;-79
2023/12/18 00:04:10;;;;;;;17.60;7.67;;;;;;;7.42;76.17;101800.70;125495;1099;101883;-80
2023/12/18 00:06:41;;;;;;;18.67;7.87;;;;;;;7.42;75.21;101805.92;125524;1099;102104;-78
2023/12/18 00:09:13;;;;;;;17.57;8.00;;;;;;;7.45;75.76;101811.36;125556;1099;101968;-80
2023/12/18 00:11:44;;;;;;;17.17;8.00;;;;;;;7.48;75.74;101805.42;125592;1099;104278;-80
2023/12/18 00:14:16;;;;;;;16.03;7.43;;;;;;;7.48;76.10;101806.34;125508;1099;104252;-79
2023/12/18 00:16:47;;;;;;;20.67;8.23;;;;;;;7.48;76.01;101795.91;125576;1099;104092;-79
2023/12/18 00:19:19;;;;;;;19.23;8.40;;;;;;;7.50;75.93;101807.34;124958;1098;104175;-79
2023/12/18 00:21:51;;;;;;;17.70;8.10;;;;;;;7.49;74.79;101808.14;125659;1099;104402;-80
2023/12/18 00:24:22;;;;;;;20.73;8.20;;;;;;;7.47;75.36;101809.75;125562;1099;104322;-79
2023/12/18 00:26:54;;;;;;;18.57;8.37;;;;;;;7.46;75.76;101823.59;125446;1098;102200;-79
2023/12/18 00:29:25;;;;;;;18.87;8.53;;;;;;;7.45;75.61;101821.80;125446;1099;104217;-79
2023/12/18 00:31:57;;;;;;;19.23;8.60;;;;;;;7.45;75.42;101820.88;124959;1099;104275;-79
2023/12/18 00:34:28;;;;;;;19.73;8.57;;;;;;;7.45;75.95;101824.42;125622;1099;117838;-80
2023/12/18 00:36:59;;;;;;;18.23;8.57;;;;;;;7.45;75.71;101824.42;125624;1099;101833;-78
2023/12/18 00:39:31;;;;;;;18.37;8.53;;;;;;;7.44;75.67;101813.86;125030;1099;104287;-79
2023/12/18 00:42:03;;;;;;;17.63;8.53;;;;;;;7.43;75.90;101812.94;125494;1099;104208;-79
2023/12/18 00:44:35;;;;;;;20.43;9.50;;;;;;;7.42;75.64;101818.98;125565;1098;101945;-79
2023/12/18 00:47:07;;;;;;;19.20;8.77;;;;;;;7.42;75.38;101812.83;125613;1099;104182;-80
2023/12/18 00:49:38;;;;;;;21.23;9.30;;;;;;;7.42;75.49;101812.83;125486;1098;104319;-80
2023/12/18 00:52:10;;;;;;;19.53;8.47;;;;;;;7.40;75.61;101806.61;125581;1099;101868;-80
2023/12/18 00:54:42;;;;;;;19.43;9.37;;;;;;;7.39;75.59;101810.93;125576;1099;101786;-79
2023/12/18 00:57:13;;;;;;;18.00;8.27;;;;;;;7.38;76.11;101811.72;125532;1099;102249;-79
2023/12/18 00:59:44;;;;;;;18.47;8.73;;;;;;;7.37;75.36;101809.94;125506;1099;104201;-79
2023/12/18 01:02:16;;;;;;;18.70;8.63;;;;;;;7.34;75.29;101807.11;125557;1099;101916;-79
2023/12/18 01:04:47;;;;;;;21.27;8.67;;;;;;;7.33;75.38;101794.84;125586;1098;104191;-78
2023/12/18 01:07:19;;;;;;;19.50;8.13;;;;;;;7.31;75.40;101802.56;125534;1098;104268;-80
2023/12/18 01:09:50;;;;;;;19.80;8.50;;;;;;;7.30;75.85;101797.23;125664;1099;104252;-80
2023/12/18 01:12:22;;;;;;;18.43;7.93;;;;;;;7.26;75.26;101792.59;125499;1099;104354;-80
2023/12/18 01:14:53;;;;;;;19.17;8.70;;;;;;;7.24;75.55;101779.42;125508;1099;103171;-79
2023/12/18 01:17:25;;;;;;;20.30;9.30;;;;;;;7.23;75.37;101785.47;125576;1099;104241;-80
2023/12/18 01:19:56;;;;;;;21.07;9.40;;;;;;;7.20;75.30;101778.31;125569;1099;104182;-79
2023/12/18 01:22:27;;;;;;;18.83;8.57;;;;;;;7.19;75.13;101781.72;125618;1099;104092;-80
2023/12/18 01:24:59;;;;;;;18.20;8.30;;;;;;;7.19;75.85;101783.43;125527;1099;101943;-80
2023/12/18 01:27:30;;;;;;;17.93;8.33;;;;;;;7.18;75.31;101781.61;125441;1099;101964;-80
2023/12/18 01:30:02;;;;;;;21.00;9.15;;;;;;;7.16;74.92;101776.28;125571;1099;102019;-79
2023/12/18 01:32:34;;;;;;;17.90;8.47;;;;;;;7.17;75.37;101779.81;125662;1099;101798;-80
2023/12/18 01:35:07;;;;;;;19.03;9.00;;;;;;;7.18;75.30;101766.88;125588;1099;104282;-79
2023/12/18 01:37:38;;;;;;;18.47;8.60;;;;;;;7.19;75.61;101759.94;125609;1098;102040;-79
2023/12/18 01:40:12;;;;;;;18.17;7.77;;;;;;;7.19;75.00;101752.11;125701;1099;104108;-78
2023/12/18 01:42:46;;;;;;;18.70;8.20;;;;;;;7.19;75.12;101745.16;125140;1099;104296;-80
2023/12/18 01:45:17;;;;;;;21.00;8.60;;;;;;;7.18;75.44;101740.77;125578;1099;104113;-80
2023/12/18 01:47:49;;;;;;;19.70;8.67;;;;;;;7.19;74.79;101744.27;125699;1098;104169;-80
2023/12/18 01:50:21;;;;;;;19.30;9.20;;;;;;;7.17;75.12;101731.11;125595;1099;104182;-80
2023/12/18 01:52:53;;;;;;;19.93;9.07;;;;;;;7.16;75.19;101734.52;125735;1099;101817;-79
2023/12/18 01:55:25;;;;;;;19.03;8.67;;;;;;;7.15;74.90;101727.50;125630;1099;102042;-79
2023/12/18 01:57:56;;;;;;;17.50;8.23;;;;;;;7.13;74.89;101722.97;125711;1098;104166;-79
2023/12/18 02:00:28;;;;;;;18.67;8.53;;;;;;;7.12;75.73;101727.29;125617;1099;102012;-79
2023/12/18 02:03:02;;;;;;;17.13;8.30;;;;;;;7.12;75.66;101718.53;125590;1099;104184;-80
2023/12/18 02:05:34;;;;;;;19.95;9.25;;;;;;;7.12;75.63;101709.02;125518;1099;104230;-79
2023/12/18 02:08:07;;;;;;;18.60;8.43;;;;;;;7.11;75.53;101707.20;125609;1099;104186;-78
2023/12/18 02:10:40;;;;;;;20.13;8.83;;;;;;;7.10;75.53;101694.94;125444;1099;104230;-79
2023/12/18 02:13:12;;;;;;;19.20;8.77;;;;;;;7.08;75.20;101691.32;125585;1099;104194;-79
2023/12/18 02:15:43;;;;;;;19.50;8.63;;;;;;;7.04;75.66;101686.68;125584;1098;101927;-78
2023/12/18 02:18:15;;;;;;;20.57;9.03;;;;;;;7.04;75.20;101680.56;125514;1099;102246;-79
2023/12/18 02:20:47;;;;;;;18.07;8.67;;;;;;;7.03;75.37;101674.45;125642;1099;104178;-79
2023/12/18 02:23:18;;;;;;;20.67;9.47;;;;;;;7.03;75.40;101679.67;125532;1099;104182;-79
2023/12/18 02:25:50;;;;;;;20.53;9.50;;;;;;;7.04;75.41;101676.23;125554;1099;102003;-79
2023/12/18 02:28:21;;;;;;;22.10;9.83;;;;;;;7.03;75.26;101669.23;125045;1099;104316;-79
2023/12/18 02:30:53;;;;;;;21.00;9.43;;;;;;;7.02;75.06;101667.41;124959;1099;104063;-79
2023/12/18 02:33:25;;;;;;;20.60;9.17;;;;;;;7.02;75.36;101664.80;125536;1099;104235;-78
2023/12/18 02:35:59;;;;;;;20.80;9.67;;;;;;;7.03;75.53;101669.23;125522;1098;104277;-79
2023/12/18 02:38:31;;;;;;;22.13;8.93;;;;;;;7.01;75.65;101669.12;125567;1099;101815;-79
2023/12/18 02:41:02;;;;;;;20.17;9.60;;;;;;;7.03;75.34;101666.63;124970;1099;102766;-79
2023/12/18 02:43:33;;;;;;;21.30;9.57;;;;;;;7.04;75.51;101663.19;125542;1099;104182;-79
2023/12/18 02:46:05;;;;;;;20.80;9.13;;;;;;;7.02;75.98;101673.52;125532;1099;104185;-79
2023/12/18 02:48:36;;;;;;;21.87;9.23;;;;;;;7.02;75.51;101662.19;124993;1099;104217;-79
2023/12/18 02:51:09;;;;;;;21.20;8.97;;;;;;;7.00;75.52;101674.23;125447;1099;104201;-79
2023/12/18 02:53:40;;;;;;;20.47;9.33;;;;;;;6.98;75.37;101681.97;125496;1099;104183;-79
2023/12/18 02:56:14;;;;;;;19.37;8.87;;;;;;;6.97;75.36;101676.64;125594;1099;103267;-78
2023/12/18 02:58:46;;;;;;;22.57;9.60;;;;;;;6.97;75.37;101658.38;125473;1099;104179;-79
2023/12/18 03:01:17;;;;;;;21.20;9.35;;;;;;;6.95;75.56;101650.44;125448;1099;104253;-79
2023/12/18 03:03:49;;;;;;;21.80;8.93;;;;;;;6.94;75.46;101664.27;125550;1099;104166;-79
2023/12/18 03:06:20;;;;;;;20.10;9.80;;;;;;;6.92;75.78;101646.69;125443;1099;104178;-79
2023/12/18 03:08:51;;;;;;;19.93;9.57;;;;;;;6.89;75.19;101649.09;125455;1099;104057;-79
2023/12/18 03:11:24;;;;;;;20.35;9.40;;;;;;;6.85;75.35;101650.59;125513;1099;104677;-80
2023/12/18 03:13:55;;;;;;;21.77;10.17;;;;;;;6.82;74.81;101645.16;125463;1098;101830;-78
2023/12/18 03:16:27;;;;;;;20.83;10.03;;;;;;;6.81;75.47;101640.77;125151;1099;101986;-79
2023/12/18 03:18:58;;;;;;;19.33;9.37;;;;;;;6.78;75.20;101632.72;125460;1099;104219;-79
2023/12/18 03:21:29;;;;;;;20.40;9.70;;;;;;;6.74;75.41;101630.69;125472;1099;102163;-79
2023/12/18 03:24:01;;;;;;;21.63;10.10;;;;;;;6.70;75.34;101631.27;125561;1099;102054;-79
2023/12/18 03:26:32;;;;;;;20.33;9.67;;;;;;;6.68;75.26;101635.48;125498;1098;104166;-79
2023/12/18 03:29:04;;;;;;;19.10;9.13;;;;;;;6.65;75.08;101633.55;124972;1099;101861;-79
2023/12/18 03:31:35;;;;;;;21.95;10.55;;;;;;;6.62;74.75;101633.34;124983;1099;104245;-79
2023/12/18 03:34:07;;;;;;;21.27;10.20;;;;;;;6.59;75.34;101625.30;125551;1099;101902;-79
2023/12/18 03:36:38;;;;;;;19.70;9.63;;;;;;;6.57;75.10;101621.69;125089;1099;104246;-79
2023/12/18 03:39:10;;;;;;;20.27;9.87;;;;;;;6.54;75.12;101624.08;125546;1099;104211;-79
2023/12/18 03:41:41;;;;;;;21.63;9.90;;;;;;;6.55;75.15;101625.91;125628;1098;104191;-79
2023/12/18 03:44:12;;;;;;;21.70;9.10;;;;;;;6.54;74.65;101626.69;125476;1099;104137;-79
2023/12/18 03:46:44;;;;;;;19.40;8.63;;;;;;;6.55;74.91;101624.19;125613;1099;104345;-79
2023/12/18 03:49:15;;;;;;;23.25;10.05;;;;;;;6.56;75.18;101622.48;125494;1098;101894;-79
2023/12/18 03:51:47;;;;;;;20.67;9.83;;;;;;;6.53;74.97;101617.98;125627;1099;104341;-78
2023/12/18 03:54:18;;;;;;;20.07;9.43;;;;;;;6.51;74.55;101610.83;124997;1099;104297;-78
2023/12/18 03:56:50;;;;;;;18.90;9.57;;;;;;;6.53;74.98;101627.48;125522;1099;104287;-78
2023/12/18 03:59:21;;;;;;;18.80;8.87;;;;;;;6.52;74.79;101612.66;125540;1099;104280;-78
2023/12/18 04:01:53;;;;;;;18.90;8.47;;;;;;;6.49;74.98;101605.51;125392;1098;102319;-78
2023/12/18 04:04:24;;;;;;;18.53;8.53;;;;;;;6.48;74.67;101606.30;125480;1099;104239;-79
2023/12/18 04:06:55;;;;;;;18.63;8.90;;;;;;;6.47;74.80;101612.33;125577;1099;102137;-79
2023/12/18 04:09:27;;;;;;;17.67;8.27;;;;;;;6.47;74.44;101608.01;125545;1099;104165;-79
2023/12/18 04:11:58;;;;;;;19.40;8.60;;;;;;;6.48;74.55;101602.01;125485;1099;104224;-79
2023/12/18 04:14:33;;;;;;;19.17;7.80;;;;;;;6.50;74.56;101601.19;125059;1099;101840;-79
2023/12/18 04:17:05;;;;;;;19.40;8.57;;;;;;;6.50;74.61;101590.75;125566;1099;101795;-79
2023/12/18 04:19:36;;;;;;;17.77;7.70;;;;;;;6.48;74.51;101599.40;125502;1099;104242;-78
2023/12/18 04:22:08;;;;;;;18.90;8.30;;;;;;;6.45;74.08;101588.75;125632;1099;104358;-78
2023/12/18 04:24:39;;;;;;;18.10;8.33;;;;;;;6.41;74.37;101576.29;125250;1099;104181;-78
2023/12/18 04:27:11;;;;;;;19.97;8.47;;;;;;;6.37;74.32;101576.86;125474;1099;102132;-79
2023/12/18 04:29:42;;;;;;;19.27;8.30;;;;;;;6.33;74.27;101573.94;124966;1099;104232;-79
2023/12/18 04:32:14;;;;;;;19.83;8.47;;;;;;;6.29;74.28;101570.22;124904;1099;101825;-80
2023/12/18 04:34:46;;;;;;;19.37;8.37;;;;;;;6.26;74.05;101575.22;124866;1100;102402;-79
2023/12/18 04:37:17;;;;;;;19.30;8.57;;;;;;;6.25;74.32;101576.03;124983;1099;102201;-79
2023/12/18 04:39:49;;;;;;;20.67;8.50;;;;;;;6.25;74.36;101576.03;125011;1102;102155;-79
2023/12/18 04:42:20;;;;;;;19.80;8.73;;;;;;;6.23;74.10;101575.00;125559;1099;101908;-79
2023/12/18 04:44:52;;;;;;;20.87;9.50;;;;;;;6.25;74.23;101576.03;125651;1099;101994;-79
2023/12/18 04:47:23;;;;;;;21.53;8.47;;;;;;;6.25;74.03;101574.33;125584;1099;104102;-80
2023/12/18 04:49:54;;;;;;;19.03;8.90;;;;;;;6.26;73.82;101570.00;127611;1098;101971;-82
2023/12/18 04:52:26;;;;;;;21.57;8.33;;;;;;;6.26;74.14;101564.79;127499;1099;104191;-81
2023/12/18 04:54:57;;;;;;;19.20;9.07;;;;;;;6.27;73.80;101566.61;126293;1099;101884;-81
2023/12/18 04:57:29;;;;;;;19.70;8.17;;;;;;;6.30;73.85;101559.01;126401;1099;101899;-78
2023/12/18 05:00:01;;;;;;;20.27;7.77;;;;;;;6.32;74.20;101556.51;127842;1098;104038;-81
2023/12/18 05:02:32;;;;;;;19.83;7.87;;;;;;;6.33;73.94;101564.44;127469;1098;101705;-80
2023/12/18 05:05:04;;;;;;;17.67;7.83;;;;;;;6.32;73.65;101567.83;127481;1099;102032;-79
2023/12/18 05:07:36;;;;;;;19.60;8.17;;;;;;;6.32;73.56;101575.64;127376;1099;101752;-82
2023/12/18 05:10:09;;;;;;;17.43;8.03;;;;;;;6.31;73.54;101571.25;126465;1099;102252;-82
2023/12/18 05:12:40;;;;;;;22.83;8.70;;;;;;;6.31;73.38;101579.08;127509;1090;103130;-81
2023/12/18 05:15:13;;;;;;;18.00;8.33;;;;;;;6.30;73.19;101578.14;127579;1099;104092;-83
2023/12/18 05:17:44;;;;;;;20.77;8.80;;;;;;;6.28;73.48;101566.72;126379;1099;102032;-79
2023/12/18 05:20:15;;;;;;;18.40;8.20;;;;;;;6.30;73.21;101556.40;126420;1099;110836;-78
2023/12/18 05:22:57;;;;;;;19.07;8.53;;;;;;;6.34;73.55;101550.58;126531;1090;102348;31
2023/12/18 05:25:30;;;;;;;24.27;8.77;;;;;;;6.37;73.35;101542.97;126528;1093;102045;-79
2023/12/18 05:28:15;;;;;;;19.10;8.10;;;;;;;6.40;73.56;101537.97;126372;1100;102600;31
2023/12/18 05:36:45;;;;;;;21.63;8.37;;;;;;;6.45;73.04;101527.86;126428;1093;101787;-80
2023/12/18 05:39:17;;;;;;;19.83;8.27;;;;;;;6.45;72.63;101525.25;126709;1093;104530;-81
2023/12/18 05:41:49;;;;;;;20.00;8.50;;;;;;;6.47;73.17;101536.72;126815;1093;103034;-80
2023/12/18 05:44:51;;;;;;;19.63;7.80;;;;;;;6.47;73.10;101524.57;127137;1093;102786;-76
2023/12/18 05:47:23;;;;;;;17.20;7.53;;;;;;;6.47;72.81;101529.78;126817;1093;101510;31
2023/12/18 05:49:55;;;;;;;18.37;7.53;;;;;;;6.47;72.90;101515.86;126851;1093;103138;-78
2023/12/18 05:52:28;;;;;;;26.10;8.10;;;;;;;6.45;72.83;101527.86;125912;1101;101963;-81
2023/12/18 05:55:01;;;;;;;18.15;8.05;;;;;;;6.45;73.00;101526.18;125165;1105;101836;-79
2023/12/18 05:57:34;;;;;;;21.60;7.70;;;;;;;6.47;72.82;101521.96;125178;1105;104181;-79
2023/12/18 06:00:11;;;;;;;20.72;8.48;;;;;;;6.50;72.86;101530.78;125092;1105;102399;-79
2023/12/18 06:02:42;;;;;;;16.60;7.27;;;;;;;6.52;72.91;101529.20;125527;1105;101820;-78
2023/12/18 06:05:14;;;;;;;28.90;7.80;;;;;;;6.53;72.71;101534.53;125405;1104;104308;-77
2023/12/18 06:07:45;;;;;;;22.60;7.70;;;;;;;6.56;72.68;101539.03;125518;1104;104178;-79
2023/12/18 06:10:17;;;;;;;18.33;7.90;;;;;;;6.59;72.95;101542.77;126125;1104;102352;-83
2023/12/18 06:12:51;;;;;;;24.30;8.67;;;;;;;6.62;72.70;101539.45;124952;1105;101855;-82
2023/12/18 06:15:24;;;;;;;22.07;8.70;;;;;;;6.64;72.62;101535.27;124898;1105;101930;-82
2023/12/18 06:17:56;;;;;;;20.97;8.67;;;;;;;6.65;72.52;101539.66;124938;1105;101905;-80
2023/12/18 06:20:27;;;;;;;19.30;9.00;;;;;;;6.65;72.85;101530.15;124810;1105;101861;-76
2023/12/18 06:22:59;;;;;;;25.30;8.77;;;;;;;6.68;73.05;101531.15;124900;1105;104159;-76
2023/12/18 06:25:31;;;;;;;22.23;9.33;;;;;;;6.72;72.95;101527.95;124896;1104;103345;-76
2023/12/18 06:28:02;;;;;;;27.33;9.20;;;;;;;6.74;72.75;101529.84;124952;1105;102102;-81
2023/12/18 06:30:34;;;;;;;20.63;9.23;;;;;;;6.77;72.80;101535.27;125132;1105;102215;-79
2023/12/18 06:33:06;;;;;;;25.90;9.00;;;;;;;6.82;72.78;101526.08;125529;1105;102145;-78
2023/12/18 06:35:38;;;;;;;20.43;8.47;;;;;;;6.88;72.67;101538.61;125393;1105;104271;-78
2023/12/18 06:38:10;;;;;;;22.23;9.33;;;;;;;6.92;72.46;101526.66;124925;1105;101930;-80
2023/12/18 06:40:45;;;;;;;24.50;8.97;;;;;;;6.95;72.38;101514.75;124847;1105;102063;-80
2023/12/18 06:43:16;;;;;;;23.23;9.20;;;;;;;7.00;71.97;101518.55;124627;1105;104201;-78
2023/12/18 06:45:48;;;;;;;20.40;8.53;;;;;;;7.01;71.64;101519.45;124972;1102;102328;-78
2023/12/18 06:48:20;;;;;;;22.53;8.80;;;;;;;7.04;72.29;101514.42;124841;1102;102006;-78
2023/12/18 06:50:52;;;;;;;21.80;8.40;;;;;;;7.10;71.98;101524.38;124991;1102;104390;-79
2023/12/18 06:53:23;;;;;;;17.20;7.50;;;;;;;7.13;71.67;101530.70;125920;1102;101856;-80
2023/12/18 06:55:57;;;;;;;20.37;7.23;;;;;;;7.18;71.97;101525.78;125651;1102;101926;-81
2023/12/18 07:01:25;;;;;;;17.80;7.20;;;;;;;7.30;71.91;101534.42;124981;1102;102800;-80
2023/12/18 07:03:57;;;;;;;17.60;7.00;;;;;;;7.35;71.96;101525.20;125586;1102;104185;-77
2023/12/18 07:06:32;;;;;;;18.50;7.57;;;;;;;7.40;71.77;101521.97;125240;1103;104158;-77
2023/12/18 07:09:09;;;;;;;23.27;9.07;;;;;;;7.46;71.94;101518.03;124673;1101;103682;-77
2023/12/18 07:11:43;;;;;;;20.60;8.70;;;;;;;7.49;71.71;101518.23;124323;1102;103566;-77
2023/12/18 07:14:15;;;;;;;22.50;9.30;;;;;;;7.55;72.21;101509.89;124611;1102;104243;-78
2023/12/18 07:16:53;;;;;;;26.17;10.30;;;;;;;7.59;71.85;101511.91;125629;1102;102005;-77
2023/12/18 07:19:28;;;;;;;22.07;10.40;;;;;;;7.63;72.04;101513.00;124876;1102;104252;-77
2023/12/18 07:22:03;;;;;;;21.85;11.05;;;;;;;7.54;70.90;101508.08;124854;1102;103696;-80
2023/12/18 07:24:35;;;;;;;23.20;10.17;;;;;;;7.40;70.96;101503.69;125449;1102;102024;-82
2023/12/18 07:27:08;;;;;;;25.60;10.73;;;;;;;7.32;71.35;101500.58;126976;1101;101696;-82
2023/12/18 07:29:40;;;;;;;24.50;10.17;;;;;;;7.34;71.52;101501.60;126714;1101;102160;-83
2023/12/18 07:32:11;;;;;;;23.93;10.53;;;;;;;7.40;71.55;101494.13;126916;1101;104309;-80
2023/12/18 07:34:43;;;;;;;25.80;10.83;;;;;;;7.48;71.51;101487.72;126301;1102;102400;-82
2023/12/18 07:37:15;;;;;;;27.80;9.90;;;;;;;7.53;71.92;101481.06;126319;1101;101873;-80
2023/12/18 07:39:46;;;;;;;24.13;10.63;;;;;;;7.59;71.26;101492.70;126071;1101;102099;-81
2023/12/18 07:42:22;;;;;;;33.93;12.13;;;;;;;7.64;71.21;101491.30;125177;1102;104179;-79
2023/12/18 07:44:56;;;;;;;30.57;12.20;;;;;;;7.68;71.49;101491.60;124881;1102;101706;-81
2023/12/18 07:47:30;;;;;;;23.53;10.37;;;;;;;7.70;71.30;101484.75;125675;1102;102096;-77
2023/12/18 07:50:02;;;;;;;26.83;10.37;;;;;;;7.65;71.09;101490.48;125561;1102;104029;-78
2023/12/18 07:52:33;;;;;;;27.30;10.67;;;;;;;7.61;70.79;101485.89;125624;1101;104227;-79
2023/12/18 07:55:09;;;;;;;23.10;11.17;;;;;;;7.60;71.06;101486.69;124867;1102;102044;-79
2023/12/18 07:57:42;;;;;;;26.53;10.43;;;;;;;7.61;70.99;101483.27;125566;1102;102051;-82
2023/12/18 08:00:16;;;;;;;29.03;10.67;;;;;;;7.61;71.26;101478.05;126354;1102;102412;-83
2023/12/18 08:02:50;;;;;;;24.90;11.00;;;;;;;7.58;70.32;101483.08;125973;1101;104202;-79
2023/12/18 08:05:24;;;;;;;25.03;10.80;;;;;;;7.56;70.60;101489.10;124894;1102;104169;-82
2023/12/18 08:08:02;;;;;;;23.77;10.37;;;;;;;7.56;70.92;101485.59;125569;1102;101904;-82
2023/12/18 08:10:39;;;;;;;23.67;10.40;;;;;;;7.61;70.68;101485.89;126032;1102;101675;-82
2023/12/18 08:13:11;;;;;;;27.07;10.50;;;;;;;7.62;70.59;101485.98;126849;1101;101952;-78
2023/12/18 08:15:59;;;;;;;24.47;9.70;;;;;;;7.63;70.73;101487.77;126637;1101;103141;-81
2023/12/18 08:18:33;;;;;;;24.47;9.87;;;;;;;7.69;70.94;101482.94;125674;1102;102003;-82
2023/12/18 08:21:13;;;;;;;23.10;10.27;;;;;;;7.76;70.80;101483.32;126766;1101;107974;-79
2023/12/18 08:23:48;;;;;;;30.83;10.53;;;;;;;7.84;70.99;101479.50;126071;1101;102072;-80
2023/12/18 08:26:22;;;;;;;22.03;9.87;;;;;;;7.90;70.83;101478.16;126216;1102;101987;-79
2023/12/18 08:28:56;;;;;;;27.35;11.10;;;;;;;7.92;71.12;101475.64;127004;1101;101743;-80
2023/12/18 08:31:29;;;;;;;26.80;10.07;;;;;;;7.99;71.02;101466.46;126021;1101;104231;-80
2023/12/18 08:34:01;;;;;;;25.83;10.90;;;;;;;8.03;71.05;101468.47;125355;1102;104274;-78
2023/12/18 08:36:36;;;;;;;25.67;10.50;;;;;;;8.03;70.36;101473.69;126507;1101;101721;-83
2023/12/18 08:39:12;;;;;;;25.13;10.20;;;;;;;8.10;70.64;101475.85;126373;1101;101912;-77
2023/12/18 08:44:41;;;;;;;24.67;11.13;;;;;;;8.20;70.15;101472.11;127009;1101;102020;-79
2023/12/18 08:47:25;;;;;;;24.90;10.37;;;;;;;8.23;71.00;101470.58;127017;1100;101822;-79
2023/12/18 08:49:57;;;;;;;23.20;11.20;;;;;;;8.29;70.53;101470.06;126815;1093;103648;-81
2023/12/18 08:52:31;;;;;;;25.27;11.00;;;;;;;8.33;71.13;101466.80;126010;1101;104232;-80
2023/12/18 08:55:11;;;;;;;26.37;10.70;;;;;;;8.36;69.97;101463.47;126327;1102;101598;-78
2023/12/18 08:57:47;;;;;;;27.58;10.00;;;;;;;8.38;70.35;101456.61;126042;1101;103684;-79
2023/12/18 09:00:35;;;;;;;26.30;9.93;;;;;;;8.38;69.59;101456.61;125477;1102;102025;-81
2023/12/18 09:03:14;;;;;;;25.00;10.00;;;;;;;8.38;69.68;101457.54;125225;1102;102948;-79
2023/12/18 09:05:53;;;;;;;21.47;9.57;;;;;;;8.48;70.43;101460.70;125394;1103;102879;-80
2023/12/18 09:08:25;;;;;;;25.47;9.53;;;;;;;8.53;69.18;101449.72;124877;1102;102168;-82
2023/12/18 09:10:59;;;;;;;28.57;11.07;;;;;;;8.59;69.59;101455.31;126211;1101;104190;-82
2023/12/18 09:13:34;;;;;;;29.47;10.63;;;;;;;8.70;69.55;101449.81;126930;1101;101421;-81
2023/12/18 09:16:09;;;;;;;27.83;11.17;;;;;;;8.80;68.80;101452.14;125387;1100;104271;-80
2023/12/18 09:18:41;;;;;;;25.68;11.30;;;;;;;8.86;68.96;101441.13;116604;1101;10001795;-81
2023/12/18 09:21:18;;;;;;;25.70;11.67;;;;;;;8.97;69.96;101445.26;126034;1102;101729;-80
2023/12/18 09:23:50;;;;;;;25.37;11.47;;;;;;;9.11;69.72;101432.95;125137;1102;101804;-79
2023/12/18 09:26:22;;;;;;;25.13;10.83;;;;;;;9.19;69.56;101421.19;126363;1101;104221;-79
2023/12/18 09:29:01;;;;;;;29.33;10.57;;;;;;;9.26;69.90;101418.11;125177;1102;101949;-78
2023/12/18 09:31:37;;;;;;;24.97;10.30;;;;;;;9.27;69.06;101419.92;125595;1101;101827;-75
2023/12/18 09:34:10;;;;;;;24.77;9.97;;;;;;;9.27;68.90;101414.68;125945;1101;101819;-78
2023/12/18 09:36:45;;;;;;;23.70;10.63;;;;;;;9.28;69.05;101413.84;124944;1102;104326;-79
2023/12/18 09:39:19;;;;;;;23.63;11.07;;;;;;;9.32;69.13;101413.20;127146;1100;101938;-78
2023/12/18 09:41:52;;;;;;;26.93;10.63;;;;;;;9.38;69.15;101406.50;125755;1101;104096;-77
2023/12/18 09:44:32;;;;;;;26.50;10.38;;;;;;;9.48;69.43;101414.95;126315;1101;102032;-76
2023/12/18 09:47:07;;;;;;;23.83;10.83;;;;;;;9.51;68.27;101399.39;126505;1093;103079;-77
2023/12/18 09:49:45;;;;;;;24.50;9.50;;;;;;;9.57;68.28;101393.59;125414;1102;101697;-79
2023/12/18 09:52:21;;;;;;;22.60;10.03;;;;;;;9.61;67.81;101397.27;126437;1101;101956;-77
2023/12/18 09:55:18;;;;;;;28.77;9.57;;;;;;;9.68;68.30;101392.44;126177;1101;101715;-77
2023/12/18 09:58:00;;;;;;;39.70;11.33;;;;;;;9.80;68.43;101391.28;125511;1102;104278;-77
2023/12/18 10:00:40;;;;;;;31.57;14.40;;;;;;;9.88;68.46;101392.61;125913;1101;104211;-78
2023/12/18 10:03:26;;;;;;;29.00;13.80;;;;;;;9.92;68.76;101381.45;126117;1101;101781;-77
2023/12/18 10:06:05;;;;;;;31.37;12.13;;;;;;;9.98;68.15;101387.02;126082;1102;103084;-79
2023/12/18 10:08:56;;;;;;;24.30;10.20;;;;;;;10.02;67.66;101377.58;126389;1101;101712;-79
2023/12/18 10:11:54;;;;;;;20.23;8.90;;;;;;;9.98;67.02;101376.52;124949;1102;102663;-81
2023/12/18 10:14:39;;;;;;;21.97;8.80;;;;;;;9.98;67.42;101375.64;125707;1102;104288;-78
2023/12/18 10:17:14;;;;;;;24.17;8.83;;;;;;;10.00;67.88;101373.98;125585;1102;102956;-78
2023/12/18 10:19:55;;;;;;;29.40;9.77;;;;;;;9.98;67.66;101363.41;125701;1102;102788;-76
2023/12/18 10:22:29;;;;;;;20.97;9.30;;;;;;;9.95;67.10;101363.26;125197;1102;104261;-78
2023/12/18 10:25:02;;;;;;;27.97;10.37;;;;;;;9.96;67.88;101362.45;125299;1102;102352;-76
2023/12/18 10:27:36;;;;;;;22.13;9.40;;;;;;;9.99;67.58;101362.61;125143;1102;102163;-77
2023/12/18 10:30:14;;;;;;;23.50;8.43;;;;;;;9.99;67.36;101361.72;125349;1102;104245;-80
2023/12/18 10:32:47;;;;;;;24.87;9.60;;;;;;;10.01;67.08;101358.33;124615;1102;103217;-77
2023/12/18 10:35:22;;;;;;;26.33;10.20;;;;;;;10.03;67.62;101348.81;124875;1102;103462;-79
2023/12/18 10:38:19;;;;;;;20.63;9.17;;;;;;;10.11;67.73;101357.08;125156;1102;104181;-79
2023/12/18 10:41:03;;;;;;;25.53;9.27;;;;;;;10.19;67.01;101354.84;125127;1102;104297;-77
2023/12/18 10:43:43;;;;;;;23.67;9.40;;;;;;;10.20;66.84;101352.30;125452;1102;103086;-77
2023/12/18 10:46:21;;;;;;;25.77;9.90;;;;;;;10.23;67.24;101341.07;124977;1102;102891;-76
2023/12/18 10:48:56;;;;;;;23.43;9.37;;;;;;;10.29;67.01;101346.63;125954;1101;102259;-78
2023/12/18 10:51:45;;;;;;;24.30;9.77;;;;;;;10.31;66.84;101339.73;125971;1101;102066;-78
2023/12/18 10:54:18;;;;;;;26.57;9.00;;;;;;;10.34;66.22;101342.53;124792;1102;102329;-78
2023/12/18 10:56:51;;;;;;;23.60;8.97;;;;;;;10.37;66.92;101337.45;127141;1101;101479;-78
2023/12/18 10:59:25;;;;;;;25.32;8.73;;;;;;;10.41;65.66;101330.65;126067;1101;102063;-80
2023/12/18 11:02:00;;;;;;;24.82;8.33;;;;;;;10.51;65.87;101342.49;126139;1101;104104;-79
2023/12/18 11:04:40;;;;;;;24.30;8.07;;;;;;;10.58;65.88;101337.63;126545;1102;101803;-81
2023/12/18 11:07:15;;;;;;;20.33;7.33;;;;;;;10.65;65.89;101330.05;125182;1102;104208;-81
2023/12/18 11:09:52;;;;;;;19.07;7.50;;;;;;;10.77;65.30;101330.64;126469;1101;101740;-82
2023/12/18 11:12:25;;;;;;;17.27;6.92;;;;;;;10.88;64.92;101328.53;126479;1100;101986;-80
2023/12/18 11:15:05;;;;;;;21.62;6.45;;;;;;;11.02;65.11;101322.20;125780;1102;104191;-84
2023/12/18 11:17:52;;;;;;;17.57;6.30;;;;;;;11.17;64.89;101322.00;126092;1102;101688;-81
2023/12/18 11:20:32;;;;;;;15.70;5.87;;;;;;;11.29;65.00;101325.19;125719;1102;101993;-80
2023/12/18 11:23:05;;;;;;;14.40;5.17;;;;;;;11.44;64.38;101327.63;127061;1101;101580;-76
2023/12/18 11:25:40;;;;;;;13.05;5.20;;;;;;;11.58;63.66;101317.74;124654;1102;104172;-76
2023/12/18 11:28:14;;;;;;;16.97;5.67;;;;;;;11.73;63.41;101314.87;124916;1102;102326;-76
2023/12/18 11:30:48;;;;;;;13.73;4.90;;;;;;;11.85;63.61;101317.16;125127;1102;104177;-78
2023/12/18 11:33:23;;;;;;;13.33;5.60;;;;;;;11.97;63.18;101319.47;125221;1102;104156;-76
2023/12/18 11:36:02;;;;;;;15.33;5.67;;;;;;;12.09;64.20;101313.81;125205;1102;104178;-80
2023/12/18 11:38:43;;;;;;;14.13;5.58;;;;;;;12.15;62.07;101312.33;125357;1102;102494;-79
2023/12/18 11:41:44;;;;;;;15.20;5.60;;;;;;;12.20;62.46;101304.63;125105;1102;102307;-82
2023/12/18 11:44:21;;;;;;;10.00;4.47;;;;;;;12.27;62.86;101297.91;124773;1102;104230;-79
2023/12/18 11:46:54;;;;;;;14.73;4.93;;;;;;;12.36;62.75;101293.03;124713;1102;109464;-78
2023/12/18 11:49:28;;;;;;;9.87;4.13;;;;;;;12.45;61.13;101297.75;125496;1101;102118;-76